Time;durP1;ratioP1;P1;durP2;ratioP2;P2;SDS_P1;SDS_P2;PMS_P1;PMS_P2;Temp;Humidity;BMP_temperature;BMP_pressure;BME280_temperature;BME280_humidity;BME280_pressure;Samples;Min_cycle;Max_cycle;Signal;HPM_P1;HPM_P2
2022/08/04 00:00:13;;;;;;;;;;;;;;;20.10;54.87;100147.06;5047388;28;20322;-70
2022/08/04 00:02:47;;;;;;;;;;;;;;;20.08;54.97;100139.09;5028482;28;19940;-71
2022/08/04 00:05:18;;;;;;;;;;;;;;;20.06;55.00;100146.94;5045575;28;19967;-71
2022/08/04 00:07:47;;;;;;;;;;;;;;;20.05;55.31;100138.94;5030423;28;19961;-72
2022/08/04 00:10:15;;;;;;;;;;;;;;;20.02;55.24;100147.94;5049782;28;19928;-69
2022/08/04 00:12:43;;;;;;;;;;;;;;;19.97;55.51;100144.16;5049040;28;19939;-70
2022/08/04 00:15:10;;;;;;;;;;;;;;;19.92;55.47;100152.69;5049523;28;19936;-71
2022/08/04 00:17:39;;;;;;;;;;;;;;;19.90;55.82;100143.00;5046471;28;19935;-71
2022/08/04 00:20:08;;;;;;;;;;;;;;;19.88;56.25;100148.06;5048822;28;19932;-70
2022/08/04 00:22:34;;;;;;;;;;;;;;;19.82;56.39;100148.25;5030916;28;19929;-71
2022/08/04 00:25:01;;;;;;;;;;;;;;;19.81;56.25;100156.91;5045957;28;19932;-72
2022/08/04 00:27:29;;;;;;;;;;;;;;;19.79;56.59;100148.94;5047124;28;19928;-70
2022/08/04 00:29:55;;;;;;;;;;;;;;;19.76;56.69;100155.13;5043663;28;19952;-72
2022/08/04 00:32:21;;;;;;;;;;;;;;;19.73;56.65;100154.97;5046299;28;19967;-69
2022/08/04 00:34:49;;;;;;;;;;;;;;;19.68;57.08;100154.00;5048320;28;19928;-70
2022/08/04 00:37:15;;;;;;;;;;;;;;;19.65;57.29;100151.84;5048448;28;20391;-71
2022/08/04 00:39:41;;;;;;;;;;;;;;;19.64;57.28;100149.44;5048420;28;19975;-68
2022/08/04 00:42:21;;;;;;;;;;;;;;;19.62;57.31;100158.06;5028347;28;20017;-69
2022/08/04 00:44:56;;;;;;;;;;;;;;;19.60;57.64;100154.81;5047904;28;19929;-70
2022/08/04 00:47:30;;;;;;;;;;;;;;;19.62;57.61;100157.28;5049677;28;19928;-70
2022/08/04 00:50:14;;;;;;;;;;;;;;;19.62;57.46;100160.03;5048079;28;19929;-72
2022/08/04 00:53:00;;;;;;;;;;;;;;;19.55;57.18;100158.56;5044408;28;20358;-70
2022/08/04 00:55:42;;;;;;;;;;;;;;;19.53;57.18;100171.13;5046646;28;20410;-70
2022/08/04 00:58:22;;;;;;;;;;;;;;;19.51;57.20;100173.41;5044677;28;20229;-69
2022/08/04 01:00:53;;;;;;;;;;;;;;;19.48;56.92;100174.06;5047690;28;20358;-70
2022/08/04 01:03:23;;;;;;;;;;;;;;;19.44;57.40;100173.91;5046547;28;20030;-69
2022/08/04 01:05:55;;;;;;;;;;;;;;;19.41;57.35;100169.00;5046060;28;19994;-70
2022/08/04 01:08:32;;;;;;;;;;;;;;;19.40;57.54;100170.13;5046816;28;20409;-70
2022/08/04 01:11:03;;;;;;;;;;;;;;;19.36;57.48;100175.53;5045879;28;20031;-69
2022/08/04 01:13:42;;;;;;;;;;;;;;;19.33;57.37;100169.81;5046692;28;19999;-70
2022/08/04 01:16:11;;;;;;;;;;;;;;;19.30;57.80;100174.06;5024267;28;19960;-70
2022/08/04 01:18:45;;;;;;;;;;;;;;;19.27;57.79;100172.72;5044941;28;19928;-70
2022/08/04 01:21:20;;;;;;;;;;;;;;;19.25;57.45;100172.25;5045988;28;20112;-70
2022/08/04 01:24:04;;;;;;;;;;;;;;;19.24;57.21;100172.59;5047739;28;19935;-70
2022/08/04 01:26:39;;;;;;;;;;;;;;;19.24;57.70;100180.91;5031879;28;19928;-70
2022/08/04 01:29:08;;;;;;;;;;;;;;;19.24;57.57;100173.38;5020027;28;19928;-70
2022/08/04 01:31:41;;;;;;;;;;;;;;;19.25;57.71;100185.31;5053695;28;20002;-72
2022/08/04 01:34:10;;;;;;;;;;;;;;;19.23;57.88;100193.13;5047392;28;19935;-69
2022/08/04 01:36:41;;;;;;;;;;;;;;;19.20;58.02;100182.66;5046581;28;20429;-70
2022/08/04 01:41:54;;;;;;;;;;;;;;;19.13;58.34;100195.06;5047841;28;19929;-70
2022/08/04 01:44:23;;;;;;;;;;;;;;;19.13;58.19;100192.28;5046904;28;19929;-70
2022/08/04 01:46:49;;;;;;;;;;;;;;;19.12;58.76;100187.91;5028805;28;19940;-70
2022/08/04 01:49:15;;;;;;;;;;;;;;;19.11;58.48;100190.97;5013556;28;20033;-70
2022/08/04 01:51:43;;;;;;;;;;;;;;;19.10;58.54;100194.88;5047257;28;20052;-69
2022/08/04 01:54:09;;;;;;;;;;;;;;;19.09;58.67;100188.53;5014258;28;20407;-70
2022/08/04 01:56:35;;;;;;;;;;;;;;;19.08;58.87;100197.16;5066226;28;19970;-71
2022/08/04 01:59:02;;;;;;;;;;;;;;;19.09;58.91;100191.31;5066102;28;19928;-71
2022/08/04 02:01:34;;;;;;;;;;;;;;;19.10;58.80;100198.50;5033404;28;20035;-71
2022/08/04 02:04:00;;;;;;;;;;;;;;;19.11;59.02;100200.13;5039372;28;19929;-71
2022/08/04 02:06:30;;;;;;;;;;;;;;;19.12;58.97;100198.16;5046598;28;19928;-70
2022/08/04 02:09:02;;;;;;;;;;;;;;;19.15;58.56;100191.16;5045201;28;19929;-70
2022/08/04 02:11:28;;;;;;;;;;;;;;;19.18;59.06;100198.81;5048708;28;19943;-70
2022/08/04 02:13:57;;;;;;;;;;;;;;;19.22;58.93;100195.06;5031223;28;19928;-70
2022/08/04 02:16:28;;;;;;;;;;;;;;;19.23;58.87;100196.72;5044968;28;19935;-70
2022/08/04 02:18:58;;;;;;;;;;;;;;;19.27;58.65;100199.66;5046830;28;19964;-70
2022/08/04 02:21:25;;;;;;;;;;;;;;;19.25;58.89;100194.41;5012479;28;19928;-69
2022/08/04 02:23:53;;;;;;;;;;;;;;;19.27;59.11;100192.13;5044174;28;20035;-70
2022/08/04 02:26:19;;;;;;;;;;;;;;;19.32;58.91;100202.25;5029129;28;20469;-68
2022/08/04 02:28:46;;;;;;;;;;;;;;;19.35;58.70;100196.06;5045714;28;20330;-70
2022/08/04 02:31:16;;;;;;;;;;;;;;;19.36;58.58;100194.94;5045121;28;20035;-71
2022/08/04 02:33:43;;;;;;;;;;;;;;;19.37;58.67;100201.28;5025931;28;19929;-70
2022/08/04 02:36:12;;;;;;;;;;;;;;;19.37;58.51;100192.97;5056732;28;20403;-70
2022/08/04 02:38:41;;;;;;;;;;;;;;;19.40;58.25;100198.69;5066002;28;20127;-70
2022/08/04 02:41:08;;;;;;;;;;;;;;;19.45;58.27;100202.44;5064853;28;19935;-69
2022/08/04 02:43:34;;;;;;;;;;;;;;;19.50;58.06;100202.28;5067384;28;19936;-70
2022/08/04 02:46:01;;;;;;;;;;;;;;;19.52;58.23;100200.81;5046421;28;20061;-71
2022/08/04 02:48:29;;;;;;;;;;;;;;;19.56;58.20;100200.97;5066701;28;19928;-67
2022/08/04 02:50:56;;;;;;;;;;;;;;;19.60;57.84;100209.47;5065360;28;19935;-70
2022/08/04 02:53:25;;;;;;;;;;;;;;;19.65;57.86;100206.53;5052417;28;19935;-70
2022/08/04 02:55:53;;;;;;;;;;;;;;;19.68;57.59;100212.25;5072563;28;19998;-70
2022/08/04 02:58:20;;;;;;;;;;;;;;;19.70;57.18;100209.97;5068166;28;20032;-70
2022/08/04 03:00:46;;;;;;;;;;;;;;;19.75;57.03;100216.47;5070922;28;19928;-71
2022/08/04 03:03:19;;;;;;;;;;;;;;;19.80;56.65;100217.13;5048334;28;19929;-70
2022/08/04 03:05:55;;;;;;;;;;;;;;;19.86;56.60;100211.41;5068697;28;19958;-70
2022/08/04 03:08:45;;;;;;;;;;;;;;;19.90;56.57;100209.59;5063761;28;19928;-71
2022/08/04 03:11:21;;;;;;;;;;;;;;;19.94;56.58;100218.94;5014605;28;20027;-71
2022/08/04 03:14:10;;;;;;;;;;;;;;;20.00;56.21;100211.28;5069477;28;19935;-71
2022/08/04 03:16:55;;;;;;;;;;;;;;;20.07;56.18;100214.34;5070479;28;19932;-70
2022/08/04 03:19:53;;;;;;;;;;;;;;;20.14;55.88;100216.63;5065602;28;19928;-70
2022/08/04 03:22:40;;;;;;;;;;;;;;;20.21;55.61;100219.69;4970290;28;19936;-69
2022/08/04 03:25:20;;;;;;;;;;;;;;;20.27;55.45;100219.19;4981307;28;19937;-71
2022/08/04 03:28:03;;;;;;;;;;;;;;;20.36;55.13;100219.16;4970787;28;19953;-70
2022/08/04 03:30:34;;;;;;;;;;;;;;;20.42;55.12;100225.34;4967727;28;19988;-71
2022/08/04 03:33:14;;;;;;;;;;;;;;;20.44;55.06;100220.28;4966503;28;20508;-71
2022/08/04 03:36:10;;;;;;;;;;;;;;;20.49;55.27;100222.06;4966857;28;19934;-71
2022/08/04 03:38:49;;;;;;;;;;;;;;;20.52;55.09;100224.19;4948774;28;19937;-70
2022/08/04 03:41:25;;;;;;;;;;;;;;;20.58;55.12;100224.81;4987944;28;20451;-70
2022/08/04 03:44:09;;;;;;;;;;;;;;;20.64;54.79;100231.84;4971813;28;19980;-71
2022/08/04 03:46:53;;;;;;;;;;;;;;;20.66;54.90;100229.53;4982696;28;19929;-71
2022/08/04 03:49:39;;;;;;;;;;;;;;;20.71;54.42;100232.13;4985357;28;20182;-69
2022/08/04 03:55:07;;;;;;;;;;;;;;;20.86;54.24;100230.78;5046504;28;19935;-71
2022/08/04 03:57:41;;;;;;;;;;;;;;;20.94;54.13;100231.91;5036654;28;19932;-70
2022/08/04 04:00:08;;;;;;;;;;;;;;;21.00;53.92;100241.66;5046790;28;19929;-70
2022/08/04 04:02:54;;;;;;;;;;;;;;;21.08;53.91;100243.59;5033195;28;19951;-71
2022/08/04 04:05:49;;;;;;;;;;;;;;;21.16;53.86;100233.56;5010343;28;19936;-71
2022/08/04 04:08:25;;;;;;;;;;;;;;;21.25;53.36;100241.88;5050468;28;20082;-70
2022/08/04 04:11:04;;;;;;;;;;;;;;;21.35;53.44;100249.00;5029224;28;19952;-71
2022/08/04 04:13:48;;;;;;;;;;;;;;;21.43;52.98;100248.09;5067031;28;19939;-70
2022/08/04 04:16:23;;;;;;;;;;;;;;;21.49;52.97;100251.50;5066974;28;19940;-71
2022/08/04 04:19:11;;;;;;;;;;;;;;;21.58;52.60;100246.72;5051173;28;19966;-70
2022/08/04 04:21:52;;;;;;;;;;;;;;;21.66;52.70;100253.38;5048656;28;19928;-70
2022/08/04 04:24:33;;;;;;;;;;;;;;;21.71;52.36;100253.16;5012563;28;19964;-71
2022/08/04 04:27:03;;;;;;;;;;;;;;;21.77;52.33;100253.78;5043470;28;19940;-71
2022/08/04 04:29:36;;;;;;;;;;;;;;;21.83;51.88;100255.19;5046902;28;20084;-69
2022/08/04 04:32:04;;;;;;;;;;;;;;;21.89;51.77;100251.06;5046925;28;20429;-71
2022/08/04 04:34:43;;;;;;;;;;;;;;;21.96;52.07;100259.66;5064348;28;19936;-70
2022/08/04 04:37:18;;;;;;;;;;;;;;;22.03;51.68;100252.75;5067879;28;19936;-70
2022/08/04 04:39:50;;;;;;;;;;;;;;;22.05;51.86;100242.88;5068085;28;19928;-70
2022/08/04 04:42:28;;;;;;;;;;;;;;;22.10;51.60;100248.25;5065346;28;19928;-71
2022/08/04 04:44:59;;;;;;;;;;;;;;;22.17;51.75;100253.28;5032907;28;20453;-71
2022/08/04 04:47:30;;;;;;;;;;;;;;;22.27;50.99;100242.84;5051919;28;20322;-70
2022/08/04 04:50:02;;;;;;;;;;;;;;;22.34;50.69;100255.03;5049042;28;19970;-72
2022/08/04 04:52:37;;;;;;;;;;;;;;;22.44;50.39;100255.78;5066022;28;20386;-71
2022/08/04 04:55:06;;;;;;;;;;;;;;;22.51;50.06;100256.88;5064705;28;20307;-70
2022/08/04 04:57:34;;;;;;;;;;;;;;;22.58;49.71;100255.47;5047721;28;20417;-71
2022/08/04 05:00:03;;;;;;;;;;;;;;;22.60;49.12;100255.94;5069610;28;19968;-72
2022/08/04 05:02:51;;;;;;;;;;;;;;;22.62;49.03;100260.03;5067392;28;19928;-70
2022/08/04 05:05:25;;;;;;;;;;;;;;;22.71;48.93;100264.66;5014879;28;20017;-71
2022/08/04 05:08:09;;;;;;;;;;;;;;;22.76;48.65;100265.25;5067941;28;19958;-72
2022/08/04 05:10:47;;;;;;;;;;;;;;;22.85;48.60;100259.56;5069250;28;19924;-71
2022/08/04 05:13:24;;;;;;;;;;;;;;;22.91;48.54;100260.16;5066705;28;20399;-66
2022/08/04 05:15:52;;;;;;;;;;;;;;;22.98;48.34;100248.44;5047438;28;19986;-67
2022/08/04 05:18:20;;;;;;;;;;;;;;;23.03;48.26;100262.16;5031912;28;19964;-67
2022/08/04 05:20:50;;;;;;;;;;;;;;;23.05;48.20;100262.63;5049679;28;20405;-70
2022/08/04 05:23:17;;;;;;;;;;;;;;;23.03;48.39;100259.38;5062028;28;20226;-71
2022/08/04 05:25:48;;;;;;;;;;;;;;;23.07;48.32;100260.28;5056264;28;19958;-72
2022/08/04 05:28:18;;;;;;;;;;;;;;;23.12;47.78;100265.63;5049094;28;19940;-71
2022/08/04 05:30:48;;;;;;;;;;;;;;;23.18;47.36;100258.66;5048956;28;19928;-72
2022/08/04 05:33:16;;;;;;;;;;;;;;;23.23;47.44;100258.41;5031925;28;20347;-71
2022/08/04 05:35:44;;;;;;;;;;;;;;;23.30;47.10;100252.28;5050356;28;19928;-71
2022/08/04 05:38:11;;;;;;;;;;;;;;;23.41;47.01;100260.97;5037931;28;20429;-72
2022/08/04 05:40:37;;;;;;;;;;;;;;;23.51;46.73;100254.09;5050238;28;19932;-71
2022/08/04 05:43:05;;;;;;;;;;;;;;;23.56;46.56;100256.63;5038708;28;19928;-70
2022/08/04 05:45:33;;;;;;;;;;;;;;;23.64;46.11;100260.44;5066594;28;19999;-71
2022/08/04 05:48:00;;;;;;;;;;;;;;;23.73;46.10;100254.75;5067625;28;19968;-72
2022/08/04 05:50:25;;;;;;;;;;;;;;;23.81;45.46;100247.41;5076462;28;19932;-71
2022/08/04 05:52:52;;;;;;;;;;;;;;;23.84;44.76;100255.06;5067653;28;19935;-71
2022/08/04 05:55:19;;;;;;;;;;;;;;;23.89;44.49;100254.81;5065597;28;19958;-71
2022/08/04 05:57:47;;;;;;;;;;;;;;;23.93;44.08;100256.53;5031225;28;19986;-71
2022/08/04 06:00:15;;;;;;;;;;;;;;;23.99;43.94;100253.47;5040773;28;20391;-71
2022/08/04 06:02:43;;;;;;;;;;;;;;;24.01;43.42;100263.13;5066837;28;19935;-72
2022/08/04 06:05:10;;;;;;;;;;;;;;;24.06;43.40;100259.31;5047438;28;20035;-72
2022/08/04 06:07:36;;;;;;;;;;;;;;;24.16;42.84;100257.97;5034702;28;19934;-72
2022/08/04 06:10:01;;;;;;;;;;;;;;;24.24;42.76;100262.59;5060723;28;20201;-72
2022/08/04 06:12:35;;;;;;;;;;;;;;;24.35;42.40;100255.31;5082977;28;19935;-72
2022/08/04 06:15:01;;;;;;;;;;;;;;;24.50;42.13;100264.88;5084256;28;19928;-70
2022/08/04 06:17:32;;;;;;;;;;;;;;;24.61;41.98;100256.78;5065165;28;19940;-71
2022/08/04 06:19:59;;;;;;;;;;;;;;;24.80;41.47;100263.69;5056156;28;19928;-70
2022/08/04 06:22:27;;;;;;;;;;;;;;;24.99;41.14;100260.16;5041151;28;19951;-71
2022/08/04 06:24:54;;;;;;;;;;;;;;;25.15;40.71;100257.31;5067885;28;19928;-71
2022/08/04 06:27:20;;;;;;;;;;;;;;;25.25;40.26;100257.94;5069096;28;20402;-71
2022/08/04 06:29:47;;;;;;;;;;;;;;;25.32;40.04;100250.53;5054563;28;19929;-71
2022/08/04 06:35:00;;;;;;;;;;;;;;;25.54;39.59;100258.63;5072613;28;19928;-71
2022/08/04 06:37:27;;;;;;;;;;;;;;;25.66;39.38;100260.47;5063269;28;20308;-70
2022/08/04 06:39:53;;;;;;;;;;;;;;;25.69;39.02;100265.34;5053771;28;19929;-71
2022/08/04 06:42:20;;;;;;;;;;;;;;;25.75;38.89;100263.84;5055422;28;19944;-71
2022/08/04 06:44:48;;;;;;;;;;;;;;;25.83;38.69;100262.84;5051156;28;19943;-70
2022/08/04 06:47:18;;;;;;;;;;;;;;;25.93;38.68;100263.44;5072107;28;19937;-71
2022/08/04 06:49:44;;;;;;;;;;;;;;;26.06;38.76;100256.47;5072898;28;19989;-70
2022/08/04 06:52:16;;;;;;;;;;;;;;;26.16;37.61;100267.09;5070744;28;19929;-71
2022/08/04 06:54:42;;;;;;;;;;;;;;;26.30;37.61;100265.78;5067879;28;19935;-71
2022/08/04 06:57:09;;;;;;;;;;;;;;;26.45;37.36;100264.88;5066854;28;19951;-72
2022/08/04 06:59:35;;;;;;;;;;;;;;;26.54;36.26;100261.81;5034000;28;20318;-72
2022/08/04 07:02:00;;;;;;;;;;;;;;;26.58;36.03;100259.09;5066912;28;19928;-70
2022/08/04 07:04:26;;;;;;;;;;;;;;;26.62;35.98;100265.56;5070809;28;20442;-71
2022/08/04 07:06:52;;;;;;;;;;;;;;;26.69;34.85;100256.47;5070761;28;19967;-71
2022/08/04 07:09:19;;;;;;;;;;;;;;;26.72;35.11;100256.53;5036076;28;20078;-69
2022/08/04 07:11:46;;;;;;;;;;;;;;;26.82;34.94;100252.28;5050060;28;19933;-72
2022/08/04 07:14:12;;;;;;;;;;;;;;;26.92;34.36;100256.47;5049130;28;19993;-70
2022/08/04 07:16:39;;;;;;;;;;;;;;;27.04;34.30;100255.44;5050691;28;20422;-71
2022/08/04 07:19:05;;;;;;;;;;;;;;;27.18;33.89;100254.88;5052793;28;19936;-71
2022/08/04 07:21:34;;;;;;;;;;;;;;;27.32;33.91;100245.84;5059744;28;19929;-71
2022/08/04 07:23:59;;;;;;;;;;;;;;;27.42;33.54;100250.81;5068524;28;19938;-70
2022/08/04 07:26:27;;;;;;;;;;;;;;;27.47;33.49;100252.47;5070096;28;20409;-70
2022/08/04 07:28:53;;;;;;;;;;;;;;;27.58;33.67;100250.66;5063856;28;19933;-71
2022/08/04 07:31:22;;;;;;;;;;;;;;;27.81;33.27;100249.75;5054133;28;20477;-69
2022/08/04 07:33:48;;;;;;;;;;;;;;;27.93;31.96;100245.03;5054479;28;19967;-70
2022/08/04 07:36:14;;;;;;;;;;;;;;;27.95;31.32;100246.28;5051068;28;19992;-69
2022/08/04 07:38:40;;;;;;;;;;;;;;;28.13;31.49;100245.69;5031985;28;19933;-71
2022/08/04 07:41:06;;;;;;;;;;;;;;;28.24;31.59;100248.63;5049968;28;19937;-71
2022/08/04 07:43:34;;;;;;;;;;;;;;;28.41;31.09;100241.59;5051792;28;19936;-70
2022/08/04 07:46:00;;;;;;;;;;;;;;;28.54;30.94;100242.09;5050918;28;19936;-70
2022/08/04 07:48:26;;;;;;;;;;;;;;;28.62;30.77;100246.59;5070009;28;20353;-69
2022/08/04 07:50:52;;;;;;;;;;;;;;;28.83;30.50;100236.75;5053022;28;19929;-70
2022/08/04 07:53:18;;;;;;;;;;;;;;;28.96;30.41;100234.44;5050979;28;19928;-70
2022/08/04 07:55:44;;;;;;;;;;;;;;;29.13;30.24;100242.22;5033712;28;19929;-70
2022/08/04 07:58:10;;;;;;;;;;;;;;;29.30;29.86;100237.06;5034068;28;19979;-70
2022/08/04 08:00:37;;;;;;;;;;;;;;;29.41;29.71;100234.31;5032788;28;19972;-70
2022/08/04 08:03:03;;;;;;;;;;;;;;;29.28;29.94;100237.47;5051677;28;19976;-70
2022/08/04 08:05:29;;;;;;;;;;;;;;;29.41;29.83;100246.38;5062106;28;20423;-69
2022/08/04 08:07:56;;;;;;;;;;;;;;;29.69;29.50;100235.69;5052687;28;19932;-71
2022/08/04 08:10:23;;;;;;;;;;;;;;;29.96;29.29;100244.63;5052114;28;19928;-70
2022/08/04 08:12:49;;;;;;;;;;;;;;;30.20;29.17;100228.22;5052079;28;19940;-72
2022/08/04 08:15:15;;;;;;;;;;;;;;;30.53;28.78;100228.25;5050482;28;20288;-71
2022/08/04 08:17:42;;;;;;;;;;;;;;;30.86;28.20;100236.75;5067676;28;19951;-70
2022/08/04 08:20:09;;;;;;;;;;;;;;;31.13;27.62;100225.81;5068032;28;19935;-69
2022/08/04 08:22:35;;;;;;;;;;;;;;;31.31;27.29;100227.81;5070604;28;19959;-69
2022/08/04 08:25:01;;;;;;;;;;;;;;;31.48;26.94;100235.44;5070562;28;19990;-70
2022/08/04 08:27:28;;;;;;;;;;;;;;;31.34;27.24;100227.00;5050950;28;20057;-71
2022/08/04 08:29:54;;;;;;;;;;;;;;;31.64;27.04;100231.34;5070437;28;20039;-70
2022/08/04 08:32:20;;;;;;;;;;;;;;;32.01;26.58;100240.50;5069768;28;19928;-70
2022/08/04 08:34:47;;;;;;;;;;;;;;;32.46;26.23;100234.97;5069805;28;19932;-70
2022/08/04 08:37:18;;;;;;;;;;;;;;;32.53;26.41;100234.91;5057401;28;19929;-69
2022/08/04 08:39:48;;;;;;;;;;;;;;;32.01;26.94;100238.47;5047963;28;20414;-70
2022/08/04 08:42:18;;;;;;;;;;;;;;;31.07;28.43;100250.03;5050095;28;19939;-71
2022/08/04 08:45:04;;;;;;;;;;;;;;;30.88;28.31;100240.78;5049257;28;19929;-71
2022/08/04 08:47:39;;;;;;;;;;;;;;;30.61;29.25;100246.81;5053006;28;19999;-70
2022/08/04 08:50:29;;;;;;;;;;;;;;;31.20;28.42;100239.13;5060650;28;20450;-71
2022/08/04 08:53:01;;;;;;;;;;;;;;;32.63;26.56;100241.72;5069046;28;19932;-69
2022/08/04 08:55:31;;;;;;;;;;;;;;;32.52;26.66;100238.94;5059659;28;20002;-70
2022/08/04 08:58:05;;;;;;;;;;;;;;;31.58;27.93;100227.34;5046898;28;19956;-70
2022/08/04 09:00:35;;;;;;;;;;;;;;;30.78;29.11;100227.50;5068909;28;19935;-70
2022/08/04 09:03:19;;;;;;;;;;;;;;;30.35;29.82;100233.88;5070265;28;19989;-71
2022/08/04 09:06:03;;;;;;;;;;;;;;;30.05;29.97;100233.03;5052474;28;19924;-70
2022/08/04 09:08:36;;;;;;;;;;;;;;;29.84;30.52;100233.72;5067078;28;19951;-70
2022/08/04 09:11:05;;;;;;;;;;;;;;;29.76;31.13;100237.72;5068921;28;19935;-72
2022/08/04 09:13:33;;;;;;;;;;;;;;;29.61;31.34;100234.03;5059611;28;19928;-71
2022/08/04 09:16:03;;;;;;;;;;;;;;;29.52;31.31;100229.59;5051928;28;19975;-70
2022/08/04 09:18:33;;;;;;;;;;;;;;;29.51;31.27;100227.16;5060883;28;19928;-71
2022/08/04 09:21:03;;;;;;;;;;;;;;;30.77;29.50;100228.72;5040749;28;19994;-71
2022/08/04 09:23:32;;;;;;;;;;;;;;;32.52;27.07;100243.81;5058539;28;19928;-71
2022/08/04 09:26:02;;;;;;;;;;;;;;;33.82;25.38;100236.06;5069376;28;19928;-71
2022/08/04 09:28:30;;;;;;;;;;;;;;;34.14;24.79;100236.84;5068689;28;20314;-71
2022/08/04 09:30:57;;;;;;;;;;;;;;;34.14;24.87;100226.34;5051171;28;20438;-71
2022/08/04 09:33:27;;;;;;;;;;;;;;;34.72;24.55;100224.63;5051139;28;19928;-70
2022/08/04 09:35:56;;;;;;;;;;;;;;;34.70;23.98;100229.94;5068882;28;19982;-71
2022/08/04 09:38:28;;;;;;;;;;;;;;;35.30;23.37;100226.44;5050988;28;19928;-70
2022/08/04 09:40:57;;;;;;;;;;;;;;;36.04;22.54;100233.06;5068980;28;19929;-70
2022/08/04 09:43:31;;;;;;;;;;;;;;;36.72;21.90;100227.75;5068576;28;19928;-69
2022/08/04 09:46:01;;;;;;;;;;;;;;;37.08;21.27;100226.03;5050236;28;19936;-72
2022/08/04 09:48:33;;;;;;;;;;;;;;;37.36;21.28;100226.50;5051762;28;19928;-70
2022/08/04 09:50:59;;;;;;;;;;;;;;;36.11;22.35;100223.56;5050843;28;20560;-71
2022/08/04 09:53:40;;;;;;;;;;;;;;;34.78;23.34;100218.03;5067754;28;20357;-70
2022/08/04 09:56:08;;;;;;;;;;;;;;;34.19;24.39;100223.00;5066350;28;19963;-71
2022/08/04 09:58:43;;;;;;;;;;;;;;;33.44;25.02;100228.44;5034212;28;19934;-71
2022/08/04 10:01:12;;;;;;;;;;;;;;;32.56;26.41;100227.63;5056832;28;19929;-71
2022/08/04 10:03:40;;;;;;;;;;;;;;;31.81;27.28;100224.84;5057214;28;19929;-70
2022/08/04 10:06:09;;;;;;;;;;;;;;;31.24;28.02;100223.81;5058831;28;20463;-70
2022/08/04 10:08:47;;;;;;;;;;;;;;;30.86;28.77;100223.44;5051555;28;20384;-70
2022/08/04 10:11:16;;;;;;;;;;;;;;;30.69;29.28;100219.44;5055321;28;19929;-72
2022/08/04 10:13:47;;;;;;;;;;;;;;;30.55;29.37;100226.66;5068620;28;19934;-71
2022/08/04 10:16:23;;;;;;;;;;;;;;;30.62;29.17;100225.88;5047178;28;19929;-71
2022/08/04 10:18:56;;;;;;;;;;;;;;;31.15;29.05;100217.75;5051294;28;20036;-70
2022/08/04 10:21:25;;;;;;;;;;;;;;;33.32;26.61;100218.41;5052077;28;20027;-70
2022/08/04 10:24:00;;;;;;;;;;;;;;;35.02;24.25;100217.22;5035236;28;19929;-72
2022/08/04 10:26:32;;;;;;;;;;;;;;;34.45;24.57;100216.94;5037978;28;20034;-70
2022/08/04 10:29:01;;;;;;;;;;;;;;;33.46;26.11;100220.31;5069795;28;19928;-71
2022/08/04 10:31:28;;;;;;;;;;;;;;;32.62;27.02;100223.09;5069516;28;19956;-71
2022/08/04 10:33:57;;;;;;;;;;;;;;;31.85;28.07;100224.81;5056608;28;19936;-71
2022/08/04 10:36:26;;;;;;;;;;;;;;;31.22;28.91;100223.44;5063874;28;19928;-71
2022/08/04 10:38:59;;;;;;;;;;;;;;;30.86;29.53;100231.91;5053788;28;19932;-70
2022/08/04 10:41:29;;;;;;;;;;;;;;;30.68;29.70;100224.25;5037776;28;19954;-70
2022/08/04 10:43:58;;;;;;;;;;;;;;;30.66;29.84;100218.22;5072379;28;20023;-70
2022/08/04 10:46:28;;;;;;;;;;;;;;;30.83;29.81;100229.91;5070616;28;20315;-71
2022/08/04 10:48:55;;;;;;;;;;;;;;;31.01;29.51;100223.44;5067643;28;20400;-69
2022/08/04 10:51:24;;;;;;;;;;;;;;;31.05;29.92;100230.69;5070963;28;19997;-70
2022/08/04 10:53:54;;;;;;;;;;;;;;;30.99;29.53;100219.00;5040444;28;19933;-71
2022/08/04 10:56:28;;;;;;;;;;;;;;;30.81;30.08;100226.69;5052262;28;20516;-71
2022/08/04 10:58:57;;;;;;;;;;;;;;;30.67;30.37;100228.28;5047868;28;19928;-70
2022/08/04 11:01:25;;;;;;;;;;;;;;;30.58;30.60;100224.22;5051380;28;20388;-71
2022/08/04 11:03:55;;;;;;;;;;;;;;;30.56;30.24;100227.44;5049836;28;19928;-71
2022/08/04 11:06:22;;;;;;;;;;;;;;;30.61;30.40;100229.06;5057784;28;19928;-70
2022/08/04 11:08:50;;;;;;;;;;;;;;;30.97;29.91;100220.59;5053063;28;19950;-71
2022/08/04 11:11:21;;;;;;;;;;;;;;;31.39;29.23;100226.59;5053904;28;19983;-70
2022/08/04 11:13:53;;;;;;;;;;;;;;;32.41;27.76;100231.78;5066614;28;19964;-69
2022/08/04 11:16:21;;;;;;;;;;;;;;;32.10;27.94;100221.06;5054323;28;20034;-71
2022/08/04 11:18:48;;;;;;;;;;;;;;;32.26;27.77;100231.84;5040422;28;20031;-70
2022/08/04 11:21:17;;;;;;;;;;;;;;;32.03;28.05;100224.72;5033421;28;20027;-70
2022/08/04 11:23:45;;;;;;;;;;;;;;;32.48;27.54;100226.88;5051953;28;19940;-71
2022/08/04 11:26:14;;;;;;;;;;;;;;;34.53;24.91;100214.81;5033812;28;20122;-70
2022/08/04 11:28:46;;;;;;;;;;;;;;;36.10;22.83;100211.38;5051327;28;19932;-71
2022/08/04 11:31:16;;;;;;;;;;;;;;;37.18;21.25;100219.25;5051539;28;19967;-71
2022/08/04 11:33:46;;;;;;;;;;;;;;;37.94;20.56;100224.00;5053888;28;20024;-69
2022/08/04 11:36:15;;;;;;;;;;;;;;;38.80;19.69;100213.94;5057972;28;20027;-70
2022/08/04 11:38:45;;;;;;;;;;;;;;;39.25;19.30;100215.56;5061795;28;19968;-70
2022/08/04 11:41:13;;;;;;;;;;;;;;;39.61;18.81;100209.81;5070711;28;20031;-70
2022/08/04 11:43:42;;;;;;;;;;;;;;;40.07;18.23;100212.09;5069166;28;19929;-70
2022/08/04 11:46:11;;;;;;;;;;;;;;;39.70;18.56;100213.50;5069173;28;20258;-70
2022/08/04 11:48:40;;;;;;;;;;;;;;;39.72;18.73;100224.47;5067920;28;19935;-70
2022/08/04 11:51:08;;;;;;;;;;;;;;;39.34;18.83;100203.44;5069957;28;19928;-71
2022/08/04 11:53:36;;;;;;;;;;;;;;;39.64;18.63;100203.16;5071368;28;20421;-70
2022/08/04 11:56:03;;;;;;;;;;;;;;;39.80;18.37;100204.97;5053228;28;19935;-70
2022/08/04 11:58:29;;;;;;;;;;;;;;;40.46;17.96;100204.00;5071441;28;20021;-70
2022/08/04 12:01:02;;;;;;;;;;;;;;;40.03;18.24;100197.16;5050429;28;19997;-70
2022/08/04 12:03:33;;;;;;;;;;;;;;;39.59;18.43;100213.13;5049469;28;19932;-71
2022/08/04 12:06:08;;;;;;;;;;;;;;;40.02;18.08;100193.47;5059823;28;19929;-70
2022/08/04 12:08:39;;;;;;;;;;;;;;;39.90;17.99;100188.69;5055742;28;19929;-71
2022/08/04 12:11:12;;;;;;;;;;;;;;;39.91;18.53;100193.16;5043340;28;19935;-71
2022/08/04 12:13:42;;;;;;;;;;;;;;;40.88;17.67;100188.28;5067346;28;19929;-71
2022/08/04 12:16:13;;;;;;;;;;;;;;;41.33;17.05;100190.84;5064082;28;19929;-72
2022/08/04 12:18:44;;;;;;;;;;;;;;;41.10;17.34;100201.66;5029729;28;20474;-72
2022/08/04 12:21:17;;;;;;;;;;;;;;;40.61;17.86;100200.50;5066018;28;19932;-70
2022/08/04 12:23:44;;;;;;;;;;;;;;;40.99;17.49;100190.69;5050557;28;19936;-73
2022/08/04 12:26:14;;;;;;;;;;;;;;;40.68;17.42;100185.88;5056887;28;19933;-70
2022/08/04 12:28:42;;;;;;;;;;;;;;;39.11;19.10;100198.97;5040051;28;19929;-70
2022/08/04 12:31:13;;;;;;;;;;;;;;;36.90;21.36;100192.31;5048549;28;19928;-70
2022/08/04 12:33:43;;;;;;;;;;;;;;;35.42;23.29;100188.81;5052339;28;19936;-70
2022/08/04 12:36:16;;;;;;;;;;;;;;;34.44;24.53;100189.78;5050336;28;20356;-71
2022/08/04 12:38:46;;;;;;;;;;;;;;;35.60;23.37;100194.16;5048881;28;20014;-70
2022/08/04 12:41:14;;;;;;;;;;;;;;;36.99;21.54;100185.97;5049466;28;19929;-71
2022/08/04 12:43:41;;;;;;;;;;;;;;;36.79;21.68;100184.06;5050933;28;19928;-70
2022/08/04 12:46:08;;;;;;;;;;;;;;;35.53;23.00;100182.97;5036794;28;20424;-71
2022/08/04 12:48:35;;;;;;;;;;;;;;;35.58;23.41;100178.78;5056784;28;19936;-70
2022/08/04 12:51:02;;;;;;;;;;;;;;;37.42;21.33;100187.63;5070008;28;19936;-71
2022/08/04 12:53:31;;;;;;;;;;;;;;;38.81;19.81;100175.53;5070023;28;19966;-71
2022/08/04 12:55:57;;;;;;;;;;;;;;;39.85;18.68;100178.66;5069068;28;19935;-70
2022/08/04 12:58:23;;;;;;;;;;;;;;;40.53;17.92;100177.13;5049463;28;20337;-70
2022/08/04 13:00:51;;;;;;;;;;;;;;;40.96;17.65;100177.31;5068788;28;19935;-70